Time;durP1;ratioP1;P1;durP2;ratioP2;P2;SDS_P1;SDS_P2;PMS_P1;PMS_P2;Temp;Humidity;BMP_temperature;BMP_pressure;BME280_temperature;BME280_humidity;BME280_pressure;Samples;Min_cycle;Max_cycle;Signal;HPM_P1;HPM_P2
2022/05/29 00:01:55;;;;;;;3.10;1.58;;;;;;;14.04;41.76;99646.62;7684250;32;37212;-73
2022/05/29 00:06:13;;;;;;;2.15;1.17;;;;;;;13.82;41.61;99641.75;7685414;32;40063;-73
2022/05/29 00:10:29;;;;;;;2.20;1.05;;;;;;;13.78;41.66;99638.78;7684205;32;40018;-73
2022/05/29 00:14:47;;;;;;;4.87;1.40;;;;;;;13.85;41.55;99630.19;7685126;32;39487;-72
2022/05/29 00:19:04;;;;;;;3.45;1.48;;;;;;;13.84;41.96;99626.63;7685458;32;36004;-73
2022/05/29 00:23:20;;;;;;;1.35;1.25;;;;;;;13.85;42.07;99624.72;7685141;32;39279;-73
2022/05/29 00:27:37;;;;;;;2.15;1.27;;;;;;;13.69;42.29;99621.38;7684020;32;40076;-74
2022/05/29 00:31:54;;;;;;;1.95;1.30;;;;;;;13.64;42.11;99616.81;7695500;32;37851;-71
2022/05/29 00:36:13;;;;;;;1.50;1.30;;;;;;;13.69;42.30;99615.88;7711666;32;37018;-72
2022/05/29 00:40:51;;;;;;;4.10;1.40;;;;;;;13.66;42.92;99619.22;7710400;32;40872;-72
2022/05/29 00:45:17;;;;;;;2.03;1.30;;;;;;;13.66;42.04;99611.84;7711275;32;39954;-72
2022/05/29 00:49:35;;;;;;;2.15;1.30;;;;;;;13.82;42.06;99608.88;7711734;32;38390;-72
2022/05/29 00:53:51;;;;;;;2.65;1.30;;;;;;;13.43;42.60;99602.56;7711300;32;37116;-73
2022/05/29 00:58:07;;;;;;;3.83;1.77;;;;;;;13.57;41.48;99596.34;7710702;32;37620;-72
2022/05/29 01:02:24;;;;;;;1.62;1.40;;;;;;;13.40;42.84;99588.66;7711386;32;39877;-72
2022/05/29 01:06:40;;;;;;;2.20;1.40;;;;;;;13.46;42.51;99591.03;7711252;32;37878;-72
2022/05/29 01:11:12;;;;;;;1.65;1.23;;;;;;;13.49;43.07;99587.69;7711355;32;38120;-72
2022/05/29 01:15:50;;;;;;;6.87;1.60;;;;;;;13.45;43.10;99578.47;7688871;32;40068;-72
2022/05/29 01:20:15;;;;;;;2.17;1.40;;;;;;;13.40;43.33;99574.97;7684643;32;39694;-73
2022/05/29 01:24:56;;;;;;;2.35;1.42;;;;;;;13.27;43.96;99582.78;7691726;32;38031;-72
2022/05/29 01:29:17;;;;;;;2.17;1.30;;;;;;;13.23;44.86;99586.38;7709992;32;38566;-72
2022/05/29 01:33:48;;;;;;;1.90;1.20;;;;;;;13.34;44.61;99576.97;7709451;32;39397;-72
2022/05/29 01:38:09;;;;;;;3.72;1.40;;;;;;;13.24;45.53;99583.34;7709642;32;39905;-73
2022/05/29 01:42:50;;;;;;;3.47;1.35;;;;;;;13.24;45.66;99575.13;7709286;32;38705;-72
2022/05/29 01:47:13;;;;;;;2.53;1.40;;;;;;;13.43;45.06;99577.09;7710798;32;36885;-72
2022/05/29 01:51:52;;;;;;;5.40;1.33;;;;;;;13.11;44.91;99587.63;7709617;32;40049;-72
2022/05/29 01:56:17;;;;;;;1.67;1.40;;;;;;;13.26;45.47;99588.53;7708205;32;39890;-73
2022/05/29 02:00:33;;;;;;;2.15;1.37;;;;;;;13.24;45.52;99588.81;7709183;32;38710;-73
2022/05/29 02:04:58;;;;;;;1.77;1.40;;;;;;;13.02;46.75;99586.66;7709255;32;37151;-73
2022/05/29 02:09:14;;;;;;;3.47;1.55;;;;;;;13.18;46.17;99578.22;7710463;32;40014;-73
2022/05/29 02:13:37;;;;;;;1.67;1.33;;;;;;;13.07;46.55;99581.13;7710161;32;39874;-72
2022/05/29 02:17:56;;;;;;;2.78;1.58;;;;;;;13.19;46.33;99585.34;7710176;32;38274;-72
2022/05/29 02:22:27;;;;;;;1.62;1.35;;;;;;;13.23;46.09;99578.16;7708935;32;37003;-72
2022/05/29 02:27:03;;;;;;;1.30;1.20;;;;;;;13.32;46.17;99566.31;7686078;32;39272;-72
2022/05/29 02:31:40;;;;;;;1.33;1.23;;;;;;;13.09;45.98;99573.44;7682040;32;39999;-72
2022/05/29 02:36:41;;;;;;;2.08;1.30;;;;;;;13.25;44.56;99565.81;7682901;32;37633;-73
2022/05/29 02:41:03;;;;;;;4.30;1.30;;;;;;;13.09;45.85;99569.88;7697324;32;38041;-71
2022/05/29 02:45:46;;;;;;;3.05;1.30;;;;;;;13.01;46.63;99570.53;7681737;32;39468;-72
2022/05/29 02:50:34;;;;;;;1.37;1.27;;;;;;;13.37;45.11;99570.91;7682717;32;39991;-73
2022/05/29 02:54:51;;;;;;;2.15;1.33;;;;;;;13.13;44.34;99555.31;7692957;32;39063;-72
2022/05/29 02:59:08;;;;;;;2.30;1.50;;;;;;;13.50;43.63;99561.94;7682577;32;36901;-72
2022/05/29 03:03:44;;;;;;;2.30;1.20;;;;;;;13.33;44.44;99567.09;7682484;32;39201;-73
2022/05/29 03:08:19;;;;;;;4.82;1.37;;;;;;;13.34;44.31;99555.88;7685677;32;39802;-73
2022/05/29 03:12:44;;;;;;;1.52;1.25;;;;;;;13.57;44.39;99552.53;7684952;32;37804;-72
2022/05/29 03:17:43;;;;;;;3.72;1.70;;;;;;;13.43;44.63;99547.78;7685883;32;37833;-73
2022/05/29 03:22:05;;;;;;;1.77;1.00;;;;;;;13.21;45.19;99551.13;7691530;32;40223;-72
2022/05/29 03:26:36;;;;;;;2.83;1.60;;;;;;;13.02;45.72;99553.84;7685824;32;40115;-73
2022/05/29 03:30:54;;;;;;;2.15;1.30;;;;;;;13.24;45.30;99550.50;7685787;32;38605;-74
2022/05/29 03:35:26;;;;;;;3.20;1.50;;;;;;;13.04;45.78;99539.81;7684331;32;37698;-72
2022/05/29 03:39:43;;;;;;;3.87;1.40;;;;;;;13.07;45.68;99551.03;7685817;32;39394;-73
2022/05/29 03:43:59;;;;;;;2.37;1.30;;;;;;;13.23;45.36;99542.59;7684314;32;40034;-72
2022/05/29 03:48:15;;;;;;;4.07;1.42;;;;;;;12.98;45.98;99547.31;7686375;32;38646;-73
2022/05/29 03:52:31;;;;;;;1.10;1.10;;;;;;;13.14;45.30;99551.47;7685587;32;37919;-73
2022/05/29 03:56:47;;;;;;;9.10;1.55;;;;;;;13.05;45.33;99555.97;7709718;32;39439;-73
2022/05/29 04:01:03;;;;;;;1.30;1.20;;;;;;;13.01;45.87;99551.37;7712065;32;40098;-73
2022/05/29 04:05:23;;;;;;;1.52;1.20;;;;;;;13.29;45.59;99557.84;7711884;32;38803;-73
2022/05/29 04:14:14;;;;;;;1.50;1.40;;;;;;;13.26;47.57;99553.78;7712043;32;40027;-72
2022/05/29 04:18:30;;;;;;;3.37;1.50;;;;;;;13.49;46.84;99554.84;7711235;32;40579;-73
2022/05/29 04:22:46;;;;;;;2.35;1.40;;;;;;;13.30;47.67;99551.25;7693239;32;37674;-73
2022/05/29 04:27:02;;;;;;;1.40;1.20;;;;;;;13.58;47.08;99548.69;7685191;32;36833;-73
2022/05/29 04:31:18;;;;;;;4.43;1.30;;;;;;;13.41;48.00;99541.00;7685178;32;40150;-72
2022/05/29 04:35:39;;;;;;;2.72;1.37;;;;;;;13.57;48.87;99547.06;7685044;32;40772;-73
2022/05/29 04:39:55;;;;;;;1.48;1.30;;;;;;;13.60;48.08;99536.31;7685041;32;38885;-72
2022/05/29 04:44:11;;;;;;;2.33;1.55;;;;;;;13.39;49.29;99543.22;7684861;32;38780;-72
2022/05/29 04:48:27;;;;;;;2.50;1.35;;;;;;;13.12;50.10;99536.44;7684825;32;40075;-72
2022/05/29 04:52:43;;;;;;;5.05;1.50;;;;;;;13.31;49.53;99539.19;7685065;32;40707;-72
2022/05/29 04:56:59;;;;;;;2.37;1.20;;;;;;;13.29;49.08;99544.16;7684723;32;38068;-73
2022/05/29 05:01:15;;;;;;;2.58;1.40;;;;;;;13.63;47.92;99540.41;7700028;32;37159;-74
2022/05/29 05:05:31;;;;;;;3.17;1.60;;;;;;;13.82;46.17;99532.16;7711464;32;39355;-73
2022/05/29 05:09:48;;;;;;;2.72;1.52;;;;;;;13.87;45.54;99527.38;7704945;32;40882;-72
2022/05/29 05:14:04;;;;;;;4.53;1.30;;;;;;;13.67;48.36;99524.97;7684576;32;37619;-72
2022/05/29 05:18:20;;;;;;;5.72;1.65;;;;;;;14.13;48.45;99512.44;7684665;32;36982;-72
2022/05/29 05:22:36;;;;;;;2.65;1.70;;;;;;;14.44;48.60;99520.87;7707798;32;39017;-73
2022/05/29 05:26:52;;;;;;;1.85;1.42;;;;;;;14.63;47.40;99518.88;7710848;32;40751;-73
2022/05/29 05:31:08;;;;;;;1.85;1.10;;;;;;;14.57;47.21;99524.75;7709499;32;38478;-72
2022/05/29 05:35:24;;;;;;;1.67;1.20;;;;;;;15.13;45.25;99512.63;7710769;32;37044;-74
2022/05/29 05:39:41;;;;;;;3.20;1.10;;;;;;;15.26;45.87;99505.44;7709082;32;39824;-73
2022/05/29 05:43:57;;;;;;;4.35;1.10;;;;;;;15.55;45.10;99502.28;7710436;32;41054;-72
2022/05/29 05:48:13;;;;;;;1.17;1.00;;;;;;;15.94;44.93;99505.50;7710717;32;38964;-73
2022/05/29 05:52:29;;;;;;;1.45;1.10;;;;;;;16.18;42.06;99505.13;7687990;32;37809;-72
2022/05/29 05:56:47;;;;;;;3.60;1.20;;;;;;;16.22;40.94;99499.81;7683891;32;40114;-73
2022/05/29 06:01:09;;;;;;;1.87;0.90;;;;;;;16.14;42.11;99504.97;7696847;32;39776;-73
2022/05/29 06:05:26;;;;;;;2.47;1.17;;;;;;;16.28;41.96;99504.87;7710409;32;38758;-72
2022/05/29 06:09:42;;;;;;;1.85;1.10;;;;;;;16.49;41.34;99499.59;7705606;32;37627;-73
2022/05/29 06:13:58;;;;;;;4.95;1.62;;;;;;;16.36;39.49;99500.50;7683461;32;39272;-73
2022/05/29 06:18:16;;;;;;;8.10;1.20;;;;;;;16.17;39.30;99491.69;7683431;32;39922;-73
2022/05/29 06:22:36;;;;;;;4.72;1.50;;;;;;;16.79;39.30;99490.78;7683958;32;38758;-73
2022/05/29 06:26:57;;;;;;;2.67;1.37;;;;;;;17.10;38.63;99487.94;7683349;32;36749;-73
2022/05/29 06:31:13;;;;;;;5.85;1.00;;;;;;;17.36;37.39;99487.16;7683745;32;40239;-73
2022/05/29 06:35:30;;;;;;;2.25;1.05;;;;;;;17.77;37.64;99486.59;7683042;32;39914;-79
2022/05/29 06:39:47;;;;;;;3.33;1.02;;;;;;;17.21;35.57;99497.53;7683282;32;38617;-78
2022/05/29 06:44:03;;;;;;;1.27;0.88;;;;;;;18.16;35.95;99489.44;7686899;32;37129;-80
2022/05/29 06:48:19;;;;;;;2.58;1.12;;;;;;;18.54;33.96;99485.88;7686100;32;39967;-80
2022/05/29 06:52:36;;;;;;;4.15;1.10;;;;;;;18.33;33.52;99494.09;7686148;32;39899;-73
2022/05/29 06:56:51;;;;;;;2.25;1.08;;;;;;;18.69;32.23;99499.13;7688340;32;37872;-74
2022/05/29 07:10:23;;;;;;;0.93;0.90;;;;;;;18.88;32.73;99481.34;7712797;32;39994;-74
2022/05/29 07:14:46;;;;;;;5.00;1.12;;;;;;;18.77;33.08;99478.94;7690998;32;37847;-74
2022/05/29 07:19:04;;;;;;;1.20;1.10;;;;;;;18.86;31.94;99476.16;7701231;32;37280;-74
2022/05/29 07:23:20;;;;;;;10.48;1.42;;;;;;;19.11;32.69;99482.66;7686959;32;41457;-76
2022/05/29 07:27:36;;;;;;;1.27;1.10;;;;;;;18.50;34.12;99479.41;7708039;32;40001;-75
2022/05/29 07:31:53;;;;;;;6.95;1.30;;;;;;;19.27;32.18;99470.97;7692878;32;37665;-75
2022/05/29 07:36:11;;;;;;;4.28;0.90;;;;;;;19.54;31.51;99466.03;7686374;32;37835;-75
2022/05/29 07:40:27;;;;;;;2.42;1.20;;;;;;;19.27;32.10;99468.22;7702613;32;41401;-75
2022/05/29 07:44:43;;;;;;;1.60;0.80;;;;;;;19.55;32.69;99464.88;7712279;32;41478;-76
2022/05/29 07:48:59;;;;;;;2.12;0.98;;;;;;;19.88;30.61;99462.91;7686493;32;38011;-75
2022/05/29 07:53:16;;;;;;;1.92;1.00;;;;;;;19.81;31.23;99450.81;7688504;32;37048;-76
2022/05/29 07:57:32;;;;;;;1.20;0.90;;;;;;;20.48;30.87;99448.69;7683082;32;40028;-76
2022/05/29 08:01:48;;;;;;;2.92;0.82;;;;;;;19.92;31.39;99443.72;7689487;32;39929;-76
2022/05/29 08:06:04;;;;;;;2.72;1.00;;;;;;;20.17;30.31;99444.53;7685986;32;36947;-76
2022/05/29 08:10:21;;;;;;;2.40;1.08;;;;;;;20.71;28.09;99435.19;7697514;32;37642;-74
2022/05/29 08:14:37;;;;;;;1.58;0.93;;;;;;;20.18;27.91;99440.62;7696940;32;39377;-75
2022/05/29 08:18:53;;;;;;;2.70;1.00;;;;;;;20.56;27.85;99433.12;7706687;32;39893;-78
2022/05/29 08:23:09;;;;;;;1.98;0.62;;;;;;;20.16;28.74;99431.88;7689148;32;39477;-75
2022/05/29 08:32:14;;;;;;;1.12;0.57;;;;;;;20.02;27.64;99431.38;7688335;32;39258;-75
2022/05/29 08:36:30;;;;;;;5.18;1.08;;;;;;;20.06;26.60;99429.56;7711796;32;39735;-76
2022/05/29 08:40:58;;;;;;;8.20;1.00;;;;;;;19.98;27.17;99424.91;7711594;32;38480;-76
2022/05/29 08:45:15;;;;;;;3.72;1.00;;;;;;;20.12;27.06;99422.63;7710659;32;36993;-76
2022/05/29 08:49:46;;;;;;;1.40;0.90;;;;;;;19.72;27.18;99414.94;7711747;32;39471;-76
2022/05/29 08:54:11;;;;;;;1.95;0.93;;;;;;;19.66;27.59;99408.81;7709990;32;39930;-75
2022/05/29 08:58:42;;;;;;;1.62;0.98;;;;;;;20.07;28.49;99407.06;7690386;32;38032;-76
2022/05/29 09:03:23;;;;;;;3.97;0.88;;;;;;;19.96;28.70;99407.88;7684691;32;36924;-75
2022/05/29 09:07:41;;;;;;;2.47;1.10;;;;;;;20.38;28.13;99413.16;7684834;32;40048;-75
2022/05/29 09:12:10;;;;;;;1.75;0.98;;;;;;;20.65;28.82;99414.44;7683686;32;40908;-74
2022/05/29 09:16:39;;;;;;;1.60;0.90;;;;;;;20.68;26.11;99408.22;7692796;32;37826;-75
2022/05/29 09:21:13;;;;;;;1.98;1.10;;;;;;;20.38;26.46;99404.88;7688626;32;37817;-75
2022/05/29 09:25:42;;;;;;;3.17;1.02;;;;;;;20.02;27.05;99400.94;7704486;32;39415;-75
2022/05/29 09:29:58;;;;;;;3.17;1.30;;;;;;;20.15;25.73;99399.81;7688702;32;39637;-75
2022/05/29 09:34:14;;;;;;;1.60;0.88;;;;;;;20.20;25.97;99399.56;7685351;32;37697;-74
2022/05/29 09:38:43;;;;;;;2.08;0.80;;;;;;;20.59;26.22;99400.00;7684476;32;37609;-75
2022/05/29 09:43:17;;;;;;;1.08;0.80;;;;;;;20.32;26.09;99393.22;7682687;32;39349;-74
2022/05/29 09:52:21;;;;;;;1.73;1.15;;;;;;;21.29;24.67;99395.31;7678108;32;38462;-75
2022/05/29 09:56:37;;;;;;;3.87;1.20;;;;;;;21.06;25.58;99387.56;7676556;32;36852;-75
2022/05/29 10:00:57;;;;;;;1.58;0.98;;;;;;;20.52;25.92;99390.66;7677734;32;40128;-74
2022/05/29 10:05:33;;;;;;;4.68;1.00;;;;;;;20.72;25.51;99388.94;7681495;32;39917;-75
2022/05/29 10:10:08;;;;;;;5.35;1.00;;;;;;;21.23;25.94;99380.91;7682689;32;37837;-75
2022/05/29 10:14:39;;;;;;;2.72;1.10;;;;;;;21.38;25.76;99374.59;7682005;32;36968;-75
2022/05/29 10:18:55;;;;;;;1.92;1.10;;;;;;;20.79;24.63;99361.44;7683786;32;39270;-75
2022/05/29 10:23:29;;;;;;;2.35;1.15;;;;;;;20.31;25.87;99371.44;7683555;32;40336;-74
2022/05/29 10:27:57;;;;;;;3.50;1.30;;;;;;;20.37;25.74;99370.03;7682460;32;37881;-75
2022/05/29 10:32:29;;;;;;;2.80;1.27;;;;;;;20.49;26.79;99361.72;7683425;32;37133;-75
2022/05/29 10:36:45;;;;;;;1.35;0.90;;;;;;;20.08;25.95;99352.53;7683150;32;39300;-75
2022/05/29 10:41:03;;;;;;;3.03;1.00;;;;;;;20.63;26.56;99344.75;7682959;32;39940;-75
2022/05/29 10:45:34;;;;;;;2.97;1.25;;;;;;;20.25;27.21;99362.56;7682926;32;39969;-75
2022/05/29 10:50:21;;;;;;;2.37;1.17;;;;;;;20.45;25.17;99355.25;7683020;32;37844;-75
2022/05/29 10:54:56;;;;;;;5.18;0.98;;;;;;;20.83;26.46;99354.03;7682871;32;39333;-75
2022/05/29 10:59:36;;;;;;;1.50;1.10;;;;;;;20.51;25.75;99351.09;7682762;32;39859;-75
2022/05/29 11:04:35;;;;;;;1.27;1.05;;;;;;;20.11;27.37;99351.84;7682649;32;37563;-75
2022/05/29 11:09:02;;;;;;;5.87;1.10;;;;;;;20.75;27.29;99343.94;7692481;32;36897;-76
2022/05/29 11:13:37;;;;;;;0.98;0.85;;;;;;;21.47;25.79;99338.44;7682590;32;39115;-75
2022/05/29 11:17:56;;;;;;;2.00;0.98;;;;;;;22.34;23.38;99346.91;7682326;32;39954;-75
2022/05/29 11:22:30;;;;;;;2.17;0.90;;;;;;;22.10;24.18;99336.81;7682537;32;38633;-75
2022/05/29 11:27:01;;;;;;;2.28;1.00;;;;;;;21.82;24.10;99337.72;7683598;32;37294;-75
2022/05/29 11:31:20;;;;;;;2.55;0.93;;;;;;;21.68;23.96;99335.41;7686059;32;40181;-75
2022/05/29 11:36:13;;;;;;;1.42;1.00;;;;;;;22.18;24.09;99321.09;7685851;32;41356;-75
2022/05/29 11:40:36;;;;;;;3.45;1.23;;;;;;;22.24;23.01;99328.78;7685585;32;38864;-75
2022/05/29 11:45:08;;;;;;;1.30;0.85;;;;;;;22.15;21.13;99322.66;7684468;32;36966;-76
2022/05/29 11:55:10;;;;;;;1.70;0.90;;;;;;;22.25;21.15;99313.75;7685814;32;40711;-75
2022/05/29 11:59:35;;;;;;;1.60;0.95;;;;;;;22.65;21.90;99298.78;7686036;32;37619;-75
2022/05/29 12:04:01;;;;;;;2.50;0.60;;;;;;;22.92;21.75;99309.22;7685605;32;37114;-75
2022/05/29 12:08:23;;;;;;;4.22;0.80;;;;;;;23.33;23.22;99296.53;7685565;32;39466;-75
2022/05/29 12:12:47;;;;;;;0.95;0.70;;;;;;;23.63;20.41;99291.09;7685591;32;40902;-76
2022/05/29 12:17:11;;;;;;;1.67;1.15;;;;;;;23.55;19.73;99289.38;7684227;32;38722;-75
2022/05/29 12:21:57;;;;;;;3.12;1.10;;;;;;;23.89;20.88;99295.13;7684293;32;37127;-76
2022/05/29 12:26:27;;;;;;;5.60;1.05;;;;;;;23.16;20.95;99291.44;7685420;32;38199;-75
2022/05/29 12:30:47;;;;;;;2.85;1.00;;;;;;;23.57;21.53;99284.22;7685341;32;39958;-75
2022/05/29 12:35:25;;;;;;;4.57;1.20;;;;;;;23.55;19.07;99281.03;7684337;32;38609;-75
2022/05/29 12:40:14;;;;;;;4.22;1.02;;;;;;;23.10;19.95;99282.63;7683587;32;37762;-75
2022/05/29 12:45:01;;;;;;;1.05;0.80;;;;;;;22.63;20.30;99275.31;7685317;32;39898;-75
2022/05/29 12:49:44;;;;;;;5.00;1.20;;;;;;;22.74;21.37;99281.88;7685066;32;39863;-76
2022/05/29 12:54:26;;;;;;;3.67;0.95;;;;;;;22.49;21.63;99278.56;7677245;32;219225;-75
2022/05/29 12:59:14;;;;;;;2.50;1.00;;;;;;;22.63;22.18;99278.09;7684988;32;37248;-75
2022/05/29 13:03:35;;;;;;;9.75;3.15;;;;;;;22.13;23.26;99275.81;7691918;32;40070;-75
2022/05/29 13:08:16;;;;;;;7.87;1.50;;;;;;;22.07;23.46;99274.47;7685009;32;40157;-75
2022/05/29 13:13:00;;;;;;;2.03;0.90;;;;;;;21.60;22.88;99280.09;7694836;32;37828;-75
2022/05/29 13:17:24;;;;;;;4.72;1.65;;;;;;;21.40;22.68;99282.72;7699995;32;37785;-76
2022/05/29 13:21:55;;;;;;;17.83;9.02;;;;;;;21.21;23.96;99275.13;7696897;32;39334;-77
2022/05/29 13:26:16;;;;;;;8.75;4.43;;;;;;;21.72;24.70;99285.56;7684492;32;40832;-75
2022/05/29 13:30:35;;;;;;;5.05;2.40;;;;;;;21.56;24.60;99280.03;7683177;32;38739;-77
2022/05/29 13:35:04;;;;;;;4.18;1.52;;;;;;;21.62;25.82;99270.25;7705030;32;36986;-76
2022/05/29 13:39:28;;;;;;;1.98;0.90;;;;;;;22.08;24.34;99262.22;7709953;32;40015;-75
2022/05/29 13:43:46;;;;;;;2.53;1.02;;;;;;;21.99;24.04;99269.94;7694653;32;39757;-75
2022/05/29 13:48:05;;;;;;;3.80;1.10;;;;;;;21.67;23.90;99258.88;7688492;32;37932;-74
2022/05/29 13:52:42;;;;;;;3.37;1.15;;;;;;;21.88;23.18;99257.78;7696087;32;37009;-74
2022/05/29 13:57:08;;;;;;;8.93;3.35;;;;;;;21.52;27.05;99251.38;7700597;32;39285;-76
2022/05/29 14:06:22;;;;;;;2.20;1.05;;;;;;;21.31;24.33;99246.87;7683675;32;38852;-77
2022/05/29 14:11:11;;;;;;;2.05;1.10;;;;;;;21.49;23.95;99236.28;7696075;32;37883;-76
2022/05/29 14:15:39;;;;;;;1.55;1.02;;;;;;;20.90;25.71;99234.31;7707938;32;40079;-76
2022/05/29 14:20:39;;;;;;;4.57;1.30;;;;;;;20.89;25.61;99225.19;7709696;32;40025;-80
2022/05/29 14:25:30;;;;;;;2.97;0.98;;;;;;;20.73;26.47;99218.81;7706227;32;36582;-76
2022/05/29 14:29:52;;;;;;;5.40;1.10;;;;;;;20.52;26.35;99221.75;7709475;32;37061;-75
2022/05/29 14:34:23;;;;;;;3.45;1.20;;;;;;;20.43;26.75;99221.91;7709742;32;39139;-75
2022/05/29 14:38:51;;;;;;;6.62;1.10;;;;;;;20.69;26.34;99215.16;7709423;32;39941;-76
2022/05/29 14:43:17;;;;;;;2.67;1.08;;;;;;;20.55;27.07;99216.31;7709155;32;38734;-76
2022/05/29 14:47:46;;;;;;;2.10;1.00;;;;;;;20.58;26.82;99217.59;7707754;32;37133;-76
2022/05/29 14:52:54;;;;;;;1.62;0.90;;;;;;;20.25;26.47;99219.44;7694336;32;39396;-75
2022/05/29 14:57:19;;;;;;;4.95;1.17;;;;;;;20.02;26.65;99226.63;7706036;32;39874;-75
2022/05/29 15:01:39;;;;;;;3.75;1.27;;;;;;;19.85;28.17;99225.75;7709245;32;38692;-74
2022/05/29 15:05:59;;;;;;;5.43;1.30;;;;;;;19.97;28.25;99226.88;7711935;32;37317;-75
2022/05/29 15:10:30;;;;;;;2.03;0.70;;;;;;;19.83;29.06;99225.31;7711736;32;40159;-75
2022/05/29 15:14:48;;;;;;;2.72;0.98;;;;;;;19.69;29.29;99213.75;7710001;32;40693;-75
2022/05/29 15:19:14;;;;;;;6.60;1.25;;;;;;;19.16;30.51;99207.28;7712400;32;38562;-74
2022/05/29 15:28:08;;;;;;;1.23;0.90;;;;;;;19.01;30.55;99206.81;7698247;32;40021;-74
2022/05/29 15:32:32;;;;;;;2.78;1.60;;;;;;;19.10;29.84;99201.19;7689548;32;39951;-74
2022/05/29 15:37:28;;;;;;;3.45;1.20;;;;;;;19.00;29.89;99205.19;7700815;32;37656;-76
2022/05/29 15:42:05;;;;;;;1.67;1.23;;;;;;;18.90;31.04;99198.16;7690441;32;37900;-75
2022/05/29 15:46:59;;;;;;;2.65;1.17;;;;;;;18.89;29.86;99190.22;7701627;32;39862;-74
2022/05/29 15:51:37;;;;;;;2.00;1.08;;;;;;;18.87;30.01;99196.09;7701487;32;40884;-75
2022/05/29 15:56:01;;;;;;;1.73;1.00;;;;;;;18.81;30.08;99194.66;7699746;32;38024;-76
2022/05/29 16:00:23;;;;;;;3.70;1.23;;;;;;;18.86;30.45;99204.72;7693470;32;37314;-74
2022/05/29 16:04:47;;;;;;;5.65;1.08;;;;;;;19.04;30.61;99205.31;7698373;32;40112;-76
2022/05/29 16:09:11;;;;;;;1.90;1.12;;;;;;;18.66;32.16;99204.41;7704200;32;39907;-75
2022/05/29 16:13:45;;;;;;;1.45;1.02;;;;;;;18.83;31.59;99213.66;7706125;32;38006;-76
2022/05/29 16:18:25;;;;;;;3.12;1.15;;;;;;;18.57;31.75;99220.22;7685503;32;37201;-75
2022/05/29 16:22:58;;;;;;;2.37;1.10;;;;;;;18.30;32.17;99214.13;7685533;32;40113;-74
2022/05/29 16:27:37;;;;;;;6.32;1.27;;;;;;;18.07;32.25;99223.87;7707785;32;39796;-76
2022/05/29 16:32:12;;;;;;;1.42;1.12;;;;;;;17.75;33.07;99226.19;7695888;32;38817;-75
2022/05/29 16:36:35;;;;;;;1.65;0.90;;;;;;;17.75;33.59;99224.22;7685848;32;36995;-74
2022/05/29 16:50:32;;;;;;;1.15;1.05;;;;;;;17.55;34.90;99208.47;7689486;32;37551;-75
2022/05/29 16:54:57;;;;;;;3.92;1.20;;;;;;;17.77;34.61;99201.84;7708353;32;37054;-74
2022/05/29 16:59:53;;;;;;;1.65;1.05;;;;;;;17.78;34.98;99201.53;7709960;32;40018;-75
2022/05/29 17:04:29;;;;;;;4.55;1.20;;;;;;;17.77;34.99;99204.59;7711677;32;39757;-75
2022/05/29 17:08:49;;;;;;;6.35;1.33;;;;;;;17.82;34.94;99207.16;7687116;32;37905;-75
2022/05/29 17:13:06;;;;;;;6.00;1.45;;;;;;;17.87;34.89;99214.44;7685023;32;37703;-79
2022/05/29 17:17:22;;;;;;;2.03;1.17;;;;;;;17.54;35.82;99212.34;7684798;32;39159;-75
2022/05/29 17:21:44;;;;;;;1.83;1.25;;;;;;;17.54;35.91;99199.38;7684753;32;40807;-75
2022/05/29 17:26:07;;;;;;;2.25;1.35;;;;;;;17.42;36.33;99210.31;7687866;32;37968;-74
2022/05/29 17:30:26;;;;;;;3.45;1.50;;;;;;;17.19;36.91;99212.50;7710164;32;38101;-74
2022/05/29 17:34:45;;;;;;;3.33;1.65;;;;;;;17.13;37.51;99214.63;7687367;32;40621;-74
2022/05/29 17:39:05;;;;;;;3.53;1.52;;;;;;;17.19;36.57;99202.28;7683272;32;39860;-74
2022/05/29 17:43:23;;;;;;;3.47;1.37;;;;;;;17.04;37.70;99200.06;7696386;32;38734;-73
2022/05/29 17:48:03;;;;;;;3.17;1.30;;;;;;;17.29;37.81;99205.84;7710962;32;37033;-74
2022/05/29 17:52:32;;;;;;;5.57;1.25;;;;;;;17.27;38.28;99217.19;7710048;32;40102;-75
2022/05/29 17:56:50;;;;;;;3.47;1.33;;;;;;;17.35;39.01;99210.00;7710831;32;39917;-75
2022/05/29 18:01:06;;;;;;;4.75;1.37;;;;;;;17.21;39.09;99224.00;7710013;32;37908;-75
2022/05/29 18:05:23;;;;;;;5.28;1.30;;;;;;;17.11;39.93;99244.47;7708583;32;37221;-74
2022/05/29 18:09:41;;;;;;;9.65;1.60;;;;;;;16.94;40.30;99239.81;7683760;32;39344;-74
2022/05/29 18:13:57;;;;;;;3.70;1.20;;;;;;;16.68;42.82;99237.09;7684557;32;40867;-74
2022/05/29 18:18:13;;;;;;;1.52;1.00;;;;;;;16.63;42.93;99232.53;7700347;32;37979;-74
2022/05/29 18:22:33;;;;;;;3.05;1.40;;;;;;;16.84;42.20;99240.16;7709021;32;36810;-73
2022/05/29 18:26:49;;;;;;;3.62;1.70;;;;;;;16.83;41.75;99236.56;7708045;32;39455;-74
2022/05/29 18:31:05;;;;;;;1.85;1.10;;;;;;;16.48;43.02;99239.34;7709623;32;40923;-73
2022/05/29 18:35:21;;;;;;;4.50;1.40;;;;;;;16.80;41.78;99225.38;7709432;32;38012;-74
2022/05/29 18:39:37;;;;;;;2.67;1.40;;;;;;;16.61;42.58;99209.22;7712121;32;37873;-74
2022/05/29 18:43:53;;;;;;;2.95;1.50;;;;;;;16.67;43.70;99218.94;7712910;32;40108;-74
2022/05/29 18:48:09;;;;;;;4.28;1.55;;;;;;;16.41;45.51;99228.03;7711939;32;40659;-73
2022/05/29 18:52:25;;;;;;;2.70;1.40;;;;;;;16.08;46.45;99234.00;7712389;32;38628;-73
2022/05/29 18:56:42;;;;;;;3.22;1.40;;;;;;;16.13;46.18;99225.59;7711002;32;37243;-73
2022/05/29 19:00:58;;;;;;;4.20;1.50;;;;;;;16.17;46.22;99241.47;7712122;32;40025;-74
2022/05/29 19:05:18;;;;;;;1.70;1.05;;;;;;;16.02;46.63;99253.72;7712202;32;39861;-73
2022/05/29 19:09:35;;;;;;;3.28;1.60;;;;;;;15.87;47.05;99249.50;7711779;32;37593;-74
2022/05/29 19:13:51;;;;;;;2.37;1.42;;;;;;;15.91;46.46;99247.72;7712597;32;37060;-73
2022/05/29 19:18:10;;;;;;;2.03;1.40;;;;;;;15.90;46.40;99254.34;7711590;32;40010;-74
2022/05/29 19:22:26;;;;;;;2.15;1.50;;;;;;;15.72;46.86;99262.53;7710614;32;39934;-74
2022/05/29 19:26:41;;;;;;;1.40;1.30;;;;;;;15.52;47.82;99254.84;7711872;32;38615;-75
2022/05/29 19:30:58;;;;;;;2.87;1.52;;;;;;;15.54;47.81;99280.09;7710774;32;37061;-75
2022/05/29 19:35:14;;;;;;;4.70;1.75;;;;;;;15.23;49.19;99282.84;7708705;32;39169;-74
2022/05/29 19:39:30;;;;;;;1.95;1.33;;;;;;;15.33;49.12;99283.41;7709977;32;40833;-75
2022/05/29 19:43:46;;;;;;;1.90;1.40;;;;;;;15.34;49.11;99274.00;7710856;32;38777;-75
2022/05/29 19:48:02;;;;;;;2.28;1.37;;;;;;;15.38;48.66;99280.50;7711531;32;37554;-74
2022/05/29 19:52:18;;;;;;;2.20;1.37;;;;;;;15.38;48.66;99286.00;7710749;32;39147;-74
2022/05/29 19:56:35;;;;;;;6.40;1.77;;;;;;;15.49;48.22;99275.53;7710749;32;39605;-75
2022/05/29 20:01:00;;;;;;;2.58;1.25;;;;;;;15.39;48.73;99282.13;7708134;32;36371;-75
2022/05/29 20:05:17;;;;;;;3.03;1.65;;;;;;;15.33;49.27;99269.66;7704411;32;36820;-75
2022/05/29 20:09:33;;;;;;;1.08;1.08;;;;;;;15.25;49.76;99275.91;7707461;32;40085;-75
2022/05/29 20:13:49;;;;;;;2.95;1.23;;;;;;;15.28;49.65;99268.97;7710526;32;40031;-75
2022/05/29 20:18:05;;;;;;;3.53;1.40;;;;;;;15.24;49.95;99265.25;7709909;32;38044;-75
2022/05/29 20:22:21;;;;;;;3.55;1.60;;;;;;;15.04;50.64;99270.16;7707787;32;37278;-74
2022/05/29 20:26:38;;;;;;;3.85;1.30;;;;;;;15.32;49.56;99276.28;7709319;32;40154;-74
2022/05/29 20:30:55;;;;;;;2.30;1.45;;;;;;;15.02;50.83;99272.38;7709937;32;39871;-75
2022/05/29 20:35:11;;;;;;;2.60;1.40;;;;;;;15.16;50.02;99277.78;7708687;32;37849;-75
2022/05/29 20:39:27;;;;;;;2.90;1.60;;;;;;;15.27;49.74;99281.91;7708719;32;37069;-76
2022/05/29 20:43:45;;;;;;;3.35;1.62;;;;;;;15.27;49.53;99281.91;7709771;32;40019;-75
2022/05/29 20:48:01;;;;;;;3.42;1.40;;;;;;;15.24;49.75;99257.00;7708251;32;38947;-74
2022/05/29 20:52:18;;;;;;;3.00;1.58;;;;;;;15.35;49.11;99253.69;7709729;32;37952;-74
2022/05/29 20:56:34;;;;;;;3.10;1.20;;;;;;;15.19;49.42;99253.28;7710192;32;37143;-74
2022/05/29 21:00:50;;;;;;;3.25;1.45;;;;;;;15.17;49.46;99239.03;7710302;32;39877;-75
2022/05/29 21:05:07;;;;;;;3.75;1.60;;;;;;;15.13;49.42;99229.03;7706998;32;39987;-75
2022/05/29 21:09:23;;;;;;;3.03;1.52;;;;;;;15.05;49.67;99235.28;7686572;32;38767;-74
2022/05/29 21:13:41;;;;;;;7.93;1.55;;;;;;;15.08;49.72;99232.72;7704574;32;37854;-75
2022/05/29 21:18:00;;;;;;;2.00;1.50;;;;;;;15.13;49.69;99242.75;7684365;32;39512;-75
2022/05/29 21:22:16;;;;;;;6.85;1.73;;;;;;;14.99;50.26;99257.38;7691150;32;40061;-74
2022/05/29 21:26:33;;;;;;;2.78;1.40;;;;;;;14.93;50.39;99247.63;7709204;32;39362;-75
2022/05/29 21:30:55;;;;;;;2.87;1.60;;;;;;;14.76;51.25;99242.03;7706198;32;37143;-75